createdAt,value
2023-05-14T00:01:34.175Z,10.53
2023-05-14T00:04:38.121Z,10.70
2023-05-14T00:07:41.890Z,10.63
2023-05-14T00:10:45.780Z,10.81
2023-05-14T00:13:51.419Z,10.83
2023-05-14T00:16:55.256Z,10.94
2023-05-14T00:19:58.221Z,10.83
2023-05-14T00:23:02.225Z,10.87
2023-05-14T00:26:06.097Z,10.79
2023-05-14T00:29:09.496Z,10.67
2023-05-14T00:32:12.928Z,10.65
2023-05-14T00:35:16.854Z,10.81
2023-05-14T00:38:20.137Z,10.92
2023-05-14T00:41:24.487Z,10.57
2023-05-14T00:44:28.272Z,10.66
2023-05-14T00:47:32.910Z,10.65
2023-05-14T00:50:36.985Z,10.80
2023-05-14T00:53:41.001Z,10.45
2023-05-14T00:56:48.491Z,10.34
2023-05-14T00:59:51.983Z,10.59
2023-05-14T01:02:55.727Z,10.28
2023-05-14T01:06:18.487Z,10.27
2023-05-14T01:09:40.186Z,10.14
2023-05-14T01:13:02.939Z,10.01
2023-05-14T01:16:08.405Z,9.94
2023-05-14T01:19:24.173Z,10.10
2023-05-14T01:22:27.196Z,10.15
2023-05-14T01:25:32.046Z,10.35
2023-05-14T01:28:38.262Z,10.31
2023-05-14T01:31:44.971Z,10.48
2023-05-14T01:34:50.410Z,10.17
2023-05-14T01:38:04.184Z,10.25
2023-05-14T01:41:07.992Z,10.08
2023-05-14T01:44:11.954Z,10.39
2023-05-14T01:47:14.887Z,10.53
2023-05-14T01:50:19.366Z,10.73
2023-05-14T01:53:22.422Z,10.80
2023-05-14T01:56:26.698Z,10.92
2023-05-14T01:59:30.474Z,10.84
2023-05-14T02:02:34.640Z,10.81
2023-05-14T02:05:38.077Z,10.62
2023-05-14T02:08:41.945Z,10.39
2023-05-14T02:11:45.681Z,10.17
2023-05-14T02:14:49.678Z,9.95
2023-05-14T02:17:56.631Z,9.73
2023-05-14T02:21:00.630Z,9.59
2023-05-14T02:24:03.692Z,9.42
2023-05-14T02:27:07.408Z,9.28
2023-05-14T02:30:11.909Z,8.84
2023-05-14T02:33:16.455Z,8.53
2023-05-14T02:36:20.116Z,8.28
2023-05-14T02:39:24.030Z,8.19
2023-05-14T02:42:30.658Z,8.15
2023-05-14T02:45:36.435Z,8.01
2023-05-14T02:48:40.638Z,7.60
2023-05-14T02:51:43.993Z,7.43
2023-05-14T02:54:46.968Z,7.26
2023-05-14T02:57:50.954Z,7.20
2023-05-14T03:00:53.936Z,7.01
2023-05-14T03:03:57.625Z,6.87
2023-05-14T03:07:01.222Z,6.90
2023-05-14T03:10:05.120Z,6.67
2023-05-14T03:13:08.786Z,6.43
2023-05-14T03:16:12.987Z,6.43
2023-05-14T03:19:16.428Z,6.42
2023-05-14T03:22:20.615Z,6.46
2023-05-14T03:25:24.107Z,6.44
2023-05-14T03:28:28.205Z,6.19
2023-05-14T03:31:32.274Z,6.02
2023-05-14T03:34:36.651Z,6.13
2023-05-14T03:37:40.406Z,6.21
2023-05-14T03:40:46.154Z,5.97
2023-05-14T03:43:49.822Z,5.70
2023-05-14T03:46:53.874Z,5.47
2023-05-14T03:49:58.030Z,5.49
2023-05-14T03:53:02.368Z,5.44
2023-05-14T03:56:06.354Z,5.36
2023-05-14T03:59:10.393Z,5.16
2023-05-14T04:02:14.115Z,5.13
2023-05-14T04:05:18.185Z,5.43
2023-05-14T04:08:21.850Z,5.78
2023-05-14T04:11:25.898Z,6.04
2023-05-14T04:14:29.638Z,5.91
2023-05-14T04:17:34.948Z,5.64
2023-05-14T04:20:38.932Z,5.50
2023-05-14T04:23:46.069Z,5.39
2023-05-14T04:26:49.539Z,5.35
2023-05-14T04:29:53.328Z,5.44
2023-05-14T04:32:57.056Z,5.15
2023-05-14T04:36:00.467Z,4.87
2023-05-14T04:39:04.705Z,4.95
2023-05-14T04:42:09.095Z,5.01
2023-05-14T04:45:14.048Z,4.78
2023-05-14T04:48:18.091Z,4.52
2023-05-14T04:51:21.711Z,4.56
2023-05-14T04:54:25.771Z,4.67
2023-05-14T04:57:29.768Z,4.89
2023-05-14T05:00:34.022Z,5.46
2023-05-14T05:03:37.848Z,5.81
2023-05-14T05:06:41.983Z,6.33
2023-05-14T05:09:45.646Z,6.57
2023-05-14T05:12:49.654Z,6.64
2023-05-14T05:15:53.283Z,6.63
2023-05-14T05:18:57.274Z,6.73
2023-05-14T05:22:00.762Z,6.88
2023-05-14T05:25:09.179Z,6.91
2023-05-14T05:28:12.551Z,7.07
2023-05-14T05:31:19.661Z,7.43
2023-05-14T05:34:23.109Z,7.60
2023-05-14T05:37:26.416Z,7.42
2023-05-14T05:40:30.176Z,7.56
2023-05-14T05:43:34.827Z,7.56
2023-05-14T05:46:38.650Z,7.71
2023-05-14T05:49:42.677Z,8.04
2023-05-14T05:52:46.402Z,8.28
2023-05-14T05:55:52.494Z,8.40
2023-05-14T05:58:55.866Z,8.29
2023-05-14T06:01:59.664Z,8.42
2023-05-14T06:05:03.750Z,8.52
2023-05-14T06:08:08.047Z,8.85
2023-05-14T06:11:11.468Z,9.39
2023-05-14T06:14:15.462Z,9.42
2023-05-14T06:17:19.318Z,9.40
2023-05-14T06:20:23.682Z,9.47
2023-05-14T06:23:27.782Z,9.69
2023-05-14T06:26:31.726Z,10.19
2023-05-14T06:29:35.443Z,10.79
2023-05-14T06:32:39.090Z,10.89
2023-05-14T06:35:42.848Z,10.80
2023-05-14T06:38:46.655Z,10.72
2023-05-14T06:41:50.367Z,10.04
2023-05-14T06:44:54.504Z,9.81
2023-05-14T06:47:58.237Z,9.89
2023-05-14T06:51:04.267Z,10.32
2023-05-14T06:54:07.253Z,10.35
2023-05-14T06:57:11.116Z,10.65
2023-05-14T07:00:16.139Z,11.36
2023-05-14T07:03:19.956Z,11.78
2023-05-14T07:06:24.214Z,12.18
2023-05-14T07:09:27.434Z,12.52
2023-05-14T07:12:31.108Z,12.12
2023-05-14T07:15:34.801Z,11.90
2023-05-14T07:18:38.654Z,11.82
2023-05-14T07:21:42.017Z,11.55
2023-05-14T07:24:46.292Z,11.41
2023-05-14T07:27:49.944Z,12.12
2023-05-14T07:30:53.904Z,12.83
2023-05-14T07:33:57.459Z,13.36
2023-05-14T07:37:02.693Z,14.41
2023-05-14T07:40:07.112Z,15.32
2023-05-14T07:43:11.751Z,15.47
2023-05-14T07:46:15.907Z,15.40
2023-05-14T07:49:20.028Z,16.10
2023-05-14T07:52:24.468Z,16.84
2023-05-14T07:55:28.729Z,15.90
2023-05-14T07:58:32.479Z,13.87
2023-05-14T08:01:39.489Z,12.59
2023-05-14T08:04:43.208Z,11.93
2023-05-14T08:07:47.199Z,11.27
2023-05-14T08:10:51.821Z,10.83
2023-05-14T08:13:55.089Z,10.73
2023-05-14T08:16:58.713Z,10.49
2023-05-14T08:20:03.248Z,10.73
2023-05-14T08:23:07.886Z,11.78
2023-05-14T08:26:11.725Z,11.86
2023-05-14T08:29:16.537Z,11.93
2023-05-14T08:32:23.862Z,11.22
2023-05-14T08:35:28.085Z,10.93
2023-05-14T08:38:31.724Z,11.20
2023-05-14T08:41:35.363Z,12.13
2023-05-14T08:44:58.376Z,13.50
2023-05-14T08:48:06.232Z,13.06
2023-05-14T08:51:10.278Z,14.01
2023-05-14T08:54:17.447Z,16.22
2023-05-14T08:57:25.110Z,15.57
2023-05-14T09:00:29.024Z,16.22
2023-05-14T09:03:32.712Z,16.95
2023-05-14T09:06:39.556Z,17.10
2023-05-14T09:09:45.609Z,17.57
2023-05-14T09:12:48.683Z,17.59
2023-05-14T09:15:53.365Z,17.02
2023-05-14T09:18:56.903Z,14.72
2023-05-14T09:22:00.792Z,13.79
2023-05-14T09:25:09.887Z,16.22
2023-05-14T09:28:13.852Z,17.05
2023-05-14T09:31:17.410Z,16.88
2023-05-14T09:34:31.669Z,16.81
2023-05-14T09:37:37.410Z,18.00
2023-05-14T09:40:41.562Z,19.39
2023-05-14T09:43:45.454Z,19.66
2023-05-14T09:46:50.428Z,16.50
2023-05-14T09:49:54.124Z,15.81
2023-05-14T09:52:58.037Z,17.15
2023-05-14T09:56:01.703Z,17.54
2023-05-14T09:59:05.942Z,17.38
2023-05-14T10:02:23.315Z,17.81
2023-05-14T10:05:27.925Z,17.15
2023-05-14T10:08:37.111Z,16.94
2023-05-14T10:11:44.943Z,16.83
2023-05-14T10:14:54.348Z,16.83
2023-05-14T10:18:04.198Z,17.07
2023-05-14T10:21:09.792Z,16.57
2023-05-14T10:24:13.904Z,16.96
2023-05-14T10:27:18.028Z,17.47
2023-05-14T10:30:26.292Z,17.26
2023-05-14T10:33:32.248Z,16.30
2023-05-14T10:36:36.750Z,16.36
2023-05-14T10:39:49.673Z,16.04
2023-05-14T10:42:54.707Z,16.43
2023-05-14T10:46:01.002Z,16.57
2023-05-14T10:49:05.631Z,16.59
2023-05-14T10:52:10.084Z,17.15
2023-05-14T10:55:16.595Z,16.42
2023-05-14T10:58:20.356Z,16.61
2023-05-14T11:01:25.459Z,16.30
2023-05-14T11:04:29.414Z,16.28
2023-05-14T11:07:36.284Z,15.88
2023-05-14T11:10:40.531Z,15.71
2023-05-14T11:13:45.805Z,15.33
2023-05-14T11:16:49.716Z,14.67
2023-05-14T11:19:53.702Z,14.47
2023-05-14T11:22:57.141Z,14.14
2023-05-14T11:26:01.209Z,14.01
2023-05-14T11:29:05.908Z,13.87
2023-05-14T11:32:10.481Z,13.54
2023-05-14T11:35:15.987Z,13.17
2023-05-14T11:38:22.129Z,12.56
2023-05-14T11:41:26.873Z,12.13
2023-05-14T11:44:31.348Z,11.55
2023-05-14T11:47:35.133Z,11.58
2023-05-14T11:50:39.339Z,11.43
2023-05-14T11:53:43.512Z,11.38
2023-05-14T11:56:52.462Z,10.86
2023-05-14T12:00:00.052Z,9.81
2023-05-14T12:03:03.796Z,8.39
2023-05-14T12:06:11.240Z,7.46
2023-05-14T12:09:18.518Z,6.69
2023-05-14T12:12:23.370Z,6.23
2023-05-14T12:15:27.800Z,5.93
2023-05-14T12:18:33.373Z,5.67
2023-05-14T12:21:37.633Z,5.49
2023-05-14T12:24:41.741Z,5.35
2023-05-14T12:27:46.378Z,5.20
2023-05-14T12:30:56.521Z,5.07
2023-05-14T12:34:01.041Z,4.93
2023-05-14T12:37:05.571Z,4.78
2023-05-14T12:40:12.448Z,4.63
2023-05-14T12:43:16.295Z,4.50
2023-05-14T12:46:20.557Z,4.37
2023-05-14T12:49:24.183Z,4.28
2023-05-14T12:52:37.624Z,4.16
2023-05-14T12:55:42.831Z,4.08
2023-05-14T12:58:49.240Z,4.03
2023-05-14T13:01:52.411Z,3.95
2023-05-14T13:04:56.275Z,3.88
2023-05-14T13:08:02.803Z,3.81
2023-05-14T13:11:06.347Z,3.74
2023-05-14T13:14:09.457Z,3.74
2023-05-14T13:17:13.508Z,3.68
2023-05-14T13:20:18.888Z,3.67
2023-05-14T13:23:22.860Z,3.67
2023-05-14T13:26:28.826Z,3.58
2023-05-14T13:29:32.609Z,3.53
2023-05-14T13:32:36.436Z,3.49
2023-05-14T13:35:40.614Z,3.44
2023-05-14T13:38:47.568Z,3.40
2023-05-14T13:41:51.891Z,3.41
2023-05-14T13:44:56.883Z,3.37
2023-05-14T13:48:01.090Z,3.30
2023-05-14T13:51:05.050Z,3.24
2023-05-14T13:54:09.502Z,3.23
2023-05-14T13:57:15.087Z,3.22
2023-05-14T14:00:19.482Z,3.18
2023-05-14T14:03:23.793Z,3.11
2023-05-14T14:06:29.535Z,3.12
2023-05-14T14:09:37.552Z,3.08
2023-05-14T14:12:43.848Z,3.03
2023-05-14T14:15:47.951Z,3.01
2023-05-14T14:18:52.327Z,3.02
2023-05-14T14:21:56.220Z,2.96
2023-05-14T14:25:00.334Z,2.99
2023-05-14T14:28:07.160Z,2.96
2023-05-14T14:31:10.475Z,2.95
2023-05-14T14:34:14.060Z,2.91
2023-05-14T14:37:19.017Z,2.87
2023-05-14T14:40:25.060Z,2.88
2023-05-14T14:43:28.733Z,2.89
2023-05-14T14:46:33.191Z,2.95
2023-05-14T14:49:37.752Z,2.92
2023-05-14T14:52:45.933Z,2.81
2023-05-14T14:55:51.283Z,2.73
2023-05-14T14:58:54.275Z,2.73
2023-05-14T15:01:58.111Z,2.62
2023-05-14T15:05:01.666Z,2.54
2023-05-14T15:08:05.615Z,2.44
2023-05-14T15:11:09.599Z,2.40
2023-05-14T15:14:13.702Z,2.34
2023-05-14T15:17:17.132Z,2.23
2023-05-14T15:20:20.905Z,2.08
2023-05-14T15:23:24.400Z,2.01
2023-05-14T15:26:27.410Z,1.91
2023-05-14T15:29:31.511Z,1.79
2023-05-14T15:32:35.197Z,1.71
2023-05-14T15:35:38.766Z,1.52
2023-05-14T15:38:42.865Z,1.41
2023-05-14T15:41:46.590Z,1.34
2023-05-14T15:44:50.121Z,1.29
2023-05-14T15:47:54.165Z,1.20
2023-05-14T15:50:57.868Z,1.12
2023-05-14T15:54:01.958Z,1.09
2023-05-14T15:57:05.193Z,1.00
2023-05-14T16:00:12.516Z,1.00
2023-05-14T16:03:16.668Z,0.93
2023-05-14T16:06:20.008Z,0.86
2023-05-14T16:09:23.845Z,0.86
2023-05-14T16:12:27.184Z,0.84
2023-05-14T16:15:30.839Z,0.75
2023-05-14T16:18:34.821Z,0.68
2023-05-14T16:21:38.755Z,0.68
2023-05-14T16:24:42.387Z,0.64
2023-05-14T16:27:46.172Z,0.58
2023-05-14T16:30:50.251Z,0.57
2023-05-14T16:33:53.882Z,0.53
2023-05-14T16:36:58.004Z,0.53
2023-05-14T16:40:02.128Z,0.48
2023-05-14T16:43:06.459Z,0.46
2023-05-14T16:46:10.211Z,0.40
2023-05-14T16:49:15.104Z,0.36
2023-05-14T16:52:18.637Z,0.31
2023-05-14T16:55:22.865Z,0.27
2023-05-14T16:58:26.592Z,0.27
2023-05-14T17:01:30.611Z,0.23
2023-05-14T17:04:39.024Z,0.23
2023-05-14T17:07:42.656Z,0.23
2023-05-14T17:10:46.337Z,0.23
2023-05-14T17:13:50.387Z,0.23
2023-05-14T17:16:55.752Z,0.23
2023-05-14T17:19:59.310Z,0.21
2023-05-14T17:23:03.153Z,0.23
2023-05-14T17:26:07.070Z,0.19
2023-05-14T17:29:10.494Z,0.14
2023-05-14T17:32:14.557Z,0.13
2023-05-14T17:35:21.439Z,0.13
2023-05-14T17:38:25.857Z,0.13
2023-05-14T17:41:28.798Z,0.05
2023-05-14T17:44:32.266Z,0.00
2023-05-14T17:47:35.391Z,-0.12
2023-05-14T17:50:40.576Z,-0.15
2023-05-14T17:53:44.325Z,-0.19
2023-05-14T17:56:49.033Z,-0.22
2023-05-14T17:59:52.505Z,-0.23
2023-05-14T18:02:55.845Z,-0.28
2023-05-14T18:06:00.026Z,-0.32
2023-05-14T18:09:03.500Z,-0.35
2023-05-14T18:12:07.529Z,-0.40
2023-05-14T18:15:11.282Z,-0.40
2023-05-14T18:18:17.663Z,-0.40
2023-05-14T18:21:20.524Z,-0.45
2023-05-14T18:24:23.768Z,-0.49
2023-05-14T18:27:27.389Z,-0.52
2023-05-14T18:30:31.211Z,-0.56
2023-05-14T18:33:36.207Z,-0.57
2023-05-14T18:36:39.752Z,-0.63
2023-05-14T18:39:43.774Z,-0.62
2023-05-14T18:42:47.474Z,-0.65
2023-05-14T18:45:51.573Z,-0.65
2023-05-14T18:48:57.177Z,-0.70
2023-05-14T18:52:01.177Z,-0.70
2023-05-14T18:55:05.094Z,-0.74
2023-05-14T18:58:09.180Z,-0.73
2023-05-14T19:01:12.760Z,-0.76
2023-05-14T19:04:16.911Z,-0.76
2023-05-14T19:07:21.137Z,-0.76
2023-05-14T19:10:25.141Z,-0.81
2023-05-14T19:13:29.162Z,-0.83
2023-05-14T19:16:33.181Z,-0.88
2023-05-14T19:19:37.107Z,-0.90
2023-05-14T19:22:41.259Z,-0.93
2023-05-14T19:25:44.929Z,-0.93
2023-05-14T19:28:49.060Z,-0.93
2023-05-14T19:31:52.788Z,-0.94
2023-05-14T19:34:56.726Z,-0.97
2023-05-14T19:38:00.696Z,-0.98
2023-05-14T19:41:04.233Z,-1.00
2023-05-14T19:44:08.104Z,-1.01
2023-05-14T19:47:12.422Z,-1.04
2023-05-14T19:50:16.376Z,-1.04
2023-05-14T19:53:20.375Z,-1.04
2023-05-14T19:56:25.216Z,-1.04
2023-05-14T19:59:31.190Z,-1.05
2023-05-14T20:02:34.747Z,-1.07
2023-05-14T20:05:38.755Z,-1.08
2023-05-14T20:08:41.993Z,-1.07
2023-05-14T20:11:46.130Z,-1.07
2023-05-14T20:14:49.698Z,-1.09
2023-05-14T20:17:53.776Z,-1.12
2023-05-14T20:20:57.079Z,-1.18
2023-05-14T20:24:01.432Z,-1.24
2023-05-14T20:27:05.009Z,-1.22
2023-05-14T20:30:09.863Z,-1.30
2023-05-14T20:33:14.273Z,-1.28
2023-05-14T20:36:18.314Z,-1.31
2023-05-14T20:39:21.836Z,-1.30
2023-05-14T20:42:26.546Z,-1.30
2023-05-14T20:45:31.153Z,-1.31
2023-05-14T20:48:34.936Z,-1.31
2023-05-14T20:51:38.872Z,-1.30
2023-05-14T20:54:43.251Z,-1.31
2023-05-14T20:57:47.127Z,-1.31
2023-05-14T21:00:50.759Z,-1.31
2023-05-14T21:03:54.672Z,-1.30
2023-05-14T21:06:58.957Z,-1.24
2023-05-14T21:10:02.460Z,-1.19
2023-05-14T21:13:06.519Z,-1.16
2023-05-14T21:16:10.228Z,-1.11
2023-05-14T21:19:15.473Z,-1.05
2023-05-14T21:22:19.306Z,-1.03
2023-05-14T21:25:23.762Z,-0.98
2023-05-14T21:28:27.610Z,-1.00
2023-05-14T21:31:31.790Z,-0.94
2023-05-14T21:34:35.658Z,-0.84
2023-05-14T21:37:40.696Z,-0.80
2023-05-14T21:40:44.017Z,-0.79
2023-05-14T21:43:48.200Z,-0.76
2023-05-14T21:46:51.906Z,-0.69
2023-05-14T21:49:55.726Z,-0.63
2023-05-14T21:52:59.293Z,-0.53
2023-05-14T21:56:02.971Z,-0.49
2023-05-14T21:59:06.629Z,-0.46
2023-05-14T22:02:10.321Z,-0.46
2023-05-14T22:05:14.321Z,-0.38
2023-05-14T22:08:18.447Z,-0.32
2023-05-14T22:11:22.539Z,-0.26
2023-05-14T22:14:28.092Z,-0.25
2023-05-14T22:17:31.776Z,-0.10
2023-05-14T22:20:35.566Z,0.05
2023-05-14T22:23:39.738Z,0.06
2023-05-14T22:26:43.750Z,0.10
2023-05-14T22:29:47.079Z,0.16
2023-05-14T22:32:51.084Z,0.20
2023-05-14T22:35:54.335Z,0.30
2023-05-14T22:38:58.466Z,0.31
2023-05-14T22:42:02.198Z,0.38
2023-05-14T22:45:06.644Z,0.38
2023-05-14T22:48:10.266Z,0.46
2023-05-14T22:51:14.248Z,0.48
2023-05-14T22:54:18.396Z,0.50
2023-05-14T22:57:22.720Z,0.54
2023-05-14T23:00:29.207Z,0.58
2023-05-14T23:03:32.503Z,0.61
2023-05-14T23:06:36.640Z,0.69
2023-05-14T23:09:39.982Z,0.89
2023-05-14T23:12:42.894Z,0.93
2023-05-14T23:15:46.266Z,1.00
2023-05-14T23:18:49.454Z,1.03
2023-05-14T23:21:52.940Z,1.05
2023-05-14T23:24:56.164Z,0.99
2023-05-14T23:28:00.504Z,1.15
2023-05-14T23:31:04.337Z,1.23
2023-05-14T23:34:08.356Z,1.36
2023-05-14T23:37:12.313Z,1.58
2023-05-14T23:40:16.695Z,1.58
2023-05-14T23:43:20.435Z,1.57
2023-05-14T23:46:25.013Z,1.64
2023-05-14T23:49:28.703Z,1.72
2023-05-14T23:52:32.740Z,1.85
2023-05-14T23:55:36.484Z,1.85
2023-05-14T23:58:40.473Z,2.08
